WMT3KK LRCL-LOWW
Flight info
| Callsign | WMT3KK |
|---|---|
| Flight time | 0h 56m |
| Altitude | 38000 |
| Route | LARMU DCT IZDUW DCT BALUX DCT TORNO DCT NATEX NATEX2W |
| Aircraft | A320/M-SDE3FGHIRWY/LB1 |
Departure
| Time | 2026-04-30 09:02 |
|---|---|
| Airport | Avram Iancu Cluj International Airport (LRCL) |
Arrival
| Time | 2026-04-30 09:59 |
|---|---|
| Airport | Vienna International Airport (LOWW) |
| Time | Latitude | Longitude | Altitude | Speed | Heading |
|---|---|---|---|---|---|
| 2026-04-30 08:28 | 46.78533 | 23.69428 | 1034 ft | 0 kts | 71° |
| 2026-04-30 08:44 | 46.78539 | 23.69455 | 1034 ft | 1 kts | 251° |
| 2026-04-30 08:44 | 46.78532 | 23.69423 | 1034 ft | 4 kts | 252° |
| 2026-04-30 08:44 | 46.78527 | 23.69402 | 1034 ft | 1 kts | 251° |
| 2026-04-30 08:45 | 46.78528 | 23.69408 | 1034 ft | 1 kts | 251° |
| 2026-04-30 08:53 | 46.78527 | 23.69401 | 1034 ft | 2 kts | 251° |
| 2026-04-30 08:53 | 46.78520 | 23.69372 | 1034 ft | 2 kts | 251° |
| 2026-04-30 08:53 | 46.78517 | 23.69355 | 1034 ft | 1 kts | 264° |
| 2026-04-30 08:53 | 46.78521 | 23.69349 | 1034 ft | 2 kts | 307° |
| 2026-04-30 08:54 | 46.78529 | 23.69346 | 1035 ft | 0 kts | 340° |
| 2026-04-30 08:54 | 46.78530 | 23.69346 | 1035 ft | 0 kts | 343° |
| 2026-04-30 08:56 | 46.78532 | 23.69345 | 1035 ft | 2 kts | 343° |
| 2026-04-30 08:56 | 46.78555 | 23.69335 | 1035 ft | 5 kts | 342° |
| 2026-04-30 08:57 | 46.78599 | 23.69306 | 1037 ft | 8 kts | 313° |
| 2026-04-30 08:57 | 46.78596 | 23.69200 | 1037 ft | 15 kts | 259° |
| 2026-04-30 08:57 | 46.78575 | 23.69041 | 1037 ft | 17 kts | 259° |
| 2026-04-30 08:57 | 46.78550 | 23.68857 | 1038 ft | 19 kts | 259° |
| 2026-04-30 08:58 | 46.78524 | 23.68666 | 1040 ft | 20 kts | 258° |
| 2026-04-30 08:58 | 46.78496 | 23.68453 | 1039 ft | 20 kts | 259° |
| 2026-04-30 08:58 | 46.78476 | 23.68295 | 1041 ft | 12 kts | 271° |
| 2026-04-30 08:58 | 46.78518 | 23.68204 | 1042 ft | 11 kts | 270° |
| 2026-04-30 08:59 | 46.78486 | 23.68064 | 1040 ft | 17 kts | 252° |
| 2026-04-30 08:59 | 46.78446 | 23.67882 | 1039 ft | 20 kts | 251° |
| 2026-04-30 08:59 | 46.78399 | 23.67676 | 1038 ft | 23 kts | 251° |
| 2026-04-30 08:59 | 46.78356 | 23.67453 | 1042 ft | 22 kts | 258° |
| 2026-04-30 09:00 | 46.78344 | 23.67366 | 1042 ft | 0 kts | 258° |
| 2026-04-30 09:00 | 46.78342 | 23.67350 | 1042 ft | 4 kts | 261° |
| 2026-04-30 09:01 | 46.78362 | 23.67250 | 1042 ft | 14 kts | 307° |
| 2026-04-30 09:01 | 46.78403 | 23.67195 | 1044 ft | 8 kts | 326° |
| 2026-04-30 09:01 | 46.78479 | 23.67227 | 1045 ft | 15 kts | 55° |
| 2026-04-30 09:01 | 46.78506 | 23.67334 | 1043 ft | 13 kts | 71° |
| 2026-04-30 09:02 | 46.78858 | 23.68888 | 1045 ft | 142 kts | 69° |
| 2026-04-30 09:02 | 46.79173 | 23.70318 | 1589 ft | 148 kts | 71° |
| 2026-04-30 09:02 | 46.79490 | 23.71744 | 2351 ft | 148 kts | 72° |
| 2026-04-30 09:03 | 46.79834 | 23.73277 | 2671 ft | 170 kts | 71° |
| 2026-04-30 09:03 | 46.80239 | 23.75031 | 2912 ft | 195 kts | 70° |
| 2026-04-30 09:03 | 46.80707 | 23.77043 | 3150 ft | 224 kts | 71° |
| 2026-04-30 09:03 | 46.81230 | 23.79343 | 3538 ft | 250 kts | 71° |
| 2026-04-30 09:04 | 46.81820 | 23.81748 | 4469 ft | 252 kts | 63° |
| 2026-04-30 09:04 | 46.82908 | 23.83725 | 5380 ft | 257 kts | 38° |
| 2026-04-30 09:04 | 46.84538 | 23.84824 | 6277 ft | 264 kts | 11° |
| 2026-04-30 09:04 | 46.86379 | 23.84686 | 7154 ft | 270 kts | 342° |
| 2026-04-30 09:05 | 46.87984 | 23.83260 | 8021 ft | 275 kts | 314° |
| 2026-04-30 09:05 | 46.88951 | 23.80858 | 8885 ft | 278 kts | 286° |
| 2026-04-30 09:05 | 46.89320 | 23.78078 | 9827 ft | 279 kts | 280° |
| 2026-04-30 09:05 | 46.89644 | 23.75263 | 10604 ft | 285 kts | 280° |
| 2026-04-30 09:06 | 46.89984 | 23.72287 | 10842 ft | 308 kts | 280° |
| 2026-04-30 09:06 | 46.90345 | 23.69122 | 11295 ft | 321 kts | 280° |
| 2026-04-30 09:06 | 46.90717 | 23.65872 | 11938 ft | 327 kts | 280° |
| 2026-04-30 09:06 | 46.91099 | 23.62568 | 12622 ft | 332 kts | 281° |
| 2026-04-30 09:07 | 46.91488 | 23.59213 | 13305 ft | 337 kts | 281° |
| 2026-04-30 09:07 | 46.91881 | 23.55815 | 13975 ft | 342 kts | 281° |
| 2026-04-30 09:07 | 46.92282 | 23.52356 | 14556 ft | 347 kts | 281° |
| 2026-04-30 09:07 | 46.92689 | 23.48836 | 15052 ft | 354 kts | 282° |
| 2026-04-30 09:08 | 46.93100 | 23.45256 | 15617 ft | 359 kts | 282° |
| 2026-04-30 09:08 | 46.93514 | 23.41639 | 16185 ft | 363 kts | 282° |
| 2026-04-30 09:08 | 46.93930 | 23.37974 | 16782 ft | 367 kts | 282° |
| 2026-04-30 09:08 | 46.94350 | 23.34270 | 17359 ft | 371 kts | 282° |
| 2026-04-30 09:09 | 46.94775 | 23.30523 | 17951 ft | 375 kts | 283° |
| 2026-04-30 09:09 | 46.95204 | 23.26732 | 18532 ft | 379 kts | 283° |
| 2026-04-30 09:09 | 46.95637 | 23.22907 | 19034 ft | 383 kts | 283° |
| 2026-04-30 09:09 | 46.96068 | 23.19089 | 19582 ft | 386 kts | 283° |
| 2026-04-30 09:10 | 46.96508 | 23.15152 | 20132 ft | 389 kts | 283° |
| 2026-04-30 09:10 | 46.96939 | 23.11284 | 20667 ft | 391 kts | 283° |
| 2026-04-30 09:10 | 46.97377 | 23.07340 | 21237 ft | 393 kts | 283° |
| 2026-04-30 09:10 | 46.97816 | 23.03375 | 21770 ft | 395 kts | 283° |
| 2026-04-30 09:11 | 46.98258 | 22.99386 | 22281 ft | 398 kts | 283° |
| 2026-04-30 09:11 | 46.98699 | 22.95375 | 22779 ft | 400 kts | 283° |
| 2026-04-30 09:11 | 46.99142 | 22.91343 | 23292 ft | 403 kts | 283° |
| 2026-04-30 09:11 | 46.99590 | 22.87271 | 23767 ft | 406 kts | 283° |
| 2026-04-30 09:12 | 47.00036 | 22.83182 | 24190 ft | 408 kts | 283° |
| 2026-04-30 09:12 | 47.00480 | 22.79067 | 24616 ft | 410 kts | 282° |
| 2026-04-30 09:12 | 47.00924 | 22.74938 | 25044 ft | 411 kts | 282° |
| 2026-04-30 09:12 | 47.01370 | 22.70778 | 25449 ft | 413 kts | 282° |
| 2026-04-30 09:13 | 47.01817 | 22.66598 | 25859 ft | 416 kts | 282° |
| 2026-04-30 09:13 | 47.02263 | 22.62401 | 26261 ft | 417 kts | 282° |
| 2026-04-30 09:13 | 47.02711 | 22.58190 | 26678 ft | 419 kts | 282° |
| 2026-04-30 09:13 | 47.03161 | 22.53961 | 27073 ft | 421 kts | 282° |
| 2026-04-30 09:14 | 47.03614 | 22.49711 | 27472 ft | 423 kts | 282° |
| 2026-04-30 09:14 | 47.04069 | 22.45441 | 27857 ft | 425 kts | 282° |
| 2026-04-30 09:14 | 47.04525 | 22.41149 | 28246 ft | 427 kts | 282° |
| 2026-04-30 09:14 | 47.04979 | 22.36832 | 28637 ft | 429 kts | 282° |
| 2026-04-30 09:15 | 47.05430 | 22.32486 | 29018 ft | 431 kts | 282° |
| 2026-04-30 09:15 | 47.05882 | 22.28120 | 29324 ft | 435 kts | 282° |
| 2026-04-30 09:15 | 47.06340 | 22.23715 | 29630 ft | 439 kts | 282° |
| 2026-04-30 09:15 | 47.06793 | 22.19338 | 29977 ft | 441 kts | 282° |
| 2026-04-30 09:16 | 47.07259 | 22.14817 | 30344 ft | 444 kts | 282° |
| 2026-04-30 09:16 | 47.07714 | 22.10384 | 30651 ft | 446 kts | 282° |
| 2026-04-30 09:16 | 47.08177 | 22.05859 | 30983 ft | 448 kts | 282° |
| 2026-04-30 09:16 | 47.08636 | 22.01331 | 31314 ft | 449 kts | 282° |
| 2026-04-30 09:17 | 47.09092 | 21.96811 | 31773 ft | 447 kts | 281° |
| 2026-04-30 09:17 | 47.09543 | 21.92300 | 32287 ft | 444 kts | 281° |
| 2026-04-30 09:17 | 47.09988 | 21.87819 | 32774 ft | 442 kts | 281° |
| 2026-04-30 09:17 | 47.10428 | 21.83358 | 33232 ft | 440 kts | 281° |
| 2026-04-30 09:18 | 47.10869 | 21.78917 | 33719 ft | 438 kts | 281° |
| 2026-04-30 09:18 | 47.11307 | 21.74506 | 34219 ft | 436 kts | 281° |
| 2026-04-30 09:18 | 47.11744 | 21.70110 | 34657 ft | 433 kts | 281° |
| 2026-04-30 09:18 | 47.12177 | 21.65735 | 35022 ft | 432 kts | 281° |
| 2026-04-30 09:19 | 47.12601 | 21.61423 | 35347 ft | 432 kts | 281° |
| 2026-04-30 09:19 | 47.13026 | 21.57062 | 35674 ft | 431 kts | 280° |
| 2026-04-30 09:19 | 47.13447 | 21.52703 | 35982 ft | 431 kts | 280° |
| 2026-04-30 09:19 | 47.13867 | 21.48338 | 36239 ft | 431 kts | 281° |
| 2026-04-30 09:20 | 47.14709 | 21.39586 | 36345 ft | 432 kts | 281° |
| 2026-04-30 09:20 | 47.15547 | 21.30842 | 36341 ft | 432 kts | 281° |
| 2026-04-30 09:21 | 47.16370 | 21.22094 | 36343 ft | 432 kts | 281° |
| 2026-04-30 09:21 | 47.17189 | 21.13382 | 36344 ft | 432 kts | 281° |
| 2026-04-30 09:22 | 47.18007 | 21.04622 | 36346 ft | 432 kts | 281° |
| 2026-04-30 09:22 | 47.18817 | 20.95838 | 36355 ft | 433 kts | 280° |
| 2026-04-30 09:23 | 47.19615 | 20.87054 | 36355 ft | 433 kts | 280° |
| 2026-04-30 09:23 | 47.20408 | 20.78268 | 36356 ft | 433 kts | 280° |
| 2026-04-30 09:24 | 47.21198 | 20.69476 | 36361 ft | 433 kts | 280° |
| 2026-04-30 09:24 | 47.21980 | 20.60734 | 36367 ft | 433 kts | 280° |
| 2026-04-30 09:25 | 47.22752 | 20.51936 | 36375 ft | 433 kts | 280° |
| 2026-04-30 09:25 | 47.23520 | 20.43141 | 36381 ft | 433 kts | 280° |
| 2026-04-30 09:26 | 47.24282 | 20.34327 | 36375 ft | 433 kts | 280° |
| 2026-04-30 09:26 | 47.25039 | 20.25533 | 36381 ft | 432 kts | 280° |
| 2026-04-30 09:27 | 47.25789 | 20.16750 | 36381 ft | 432 kts | 280° |
| 2026-04-30 09:27 | 47.26529 | 20.07962 | 36381 ft | 432 kts | 280° |
| 2026-04-30 09:28 | 47.27263 | 19.99176 | 36375 ft | 432 kts | 280° |
| 2026-04-30 09:28 | 47.27981 | 19.90382 | 36384 ft | 432 kts | 279° |
| 2026-04-30 09:29 | 47.28701 | 19.81649 | 36371 ft | 432 kts | 280° |
| 2026-04-30 09:29 | 47.29426 | 19.72797 | 35923 ft | 432 kts | 280° |
| 2026-04-30 09:30 | 47.29779 | 19.68412 | 35438 ft | 430 kts | 280° |
| 2026-04-30 09:30 | 47.30125 | 19.64055 | 35080 ft | 426 kts | 280° |
| 2026-04-30 09:30 | 47.30463 | 19.59748 | 34734 ft | 422 kts | 280° |
| 2026-04-30 09:30 | 47.30792 | 19.55521 | 34392 ft | 418 kts | 280° |
| 2026-04-30 09:31 | 47.31124 | 19.51276 | 33985 ft | 416 kts | 280° |
| 2026-04-30 09:31 | 47.31456 | 19.47060 | 33578 ft | 413 kts | 281° |
| 2026-04-30 09:31 | 47.31788 | 19.42857 | 33176 ft | 411 kts | 281° |
| 2026-04-30 09:31 | 47.32115 | 19.38682 | 32761 ft | 409 kts | 281° |
| 2026-04-30 09:32 | 47.32437 | 19.34523 | 32366 ft | 407 kts | 281° |
| 2026-04-30 09:32 | 47.32756 | 19.30383 | 31981 ft | 405 kts | 281° |
| 2026-04-30 09:32 | 47.33074 | 19.26261 | 31600 ft | 404 kts | 281° |
| 2026-04-30 09:32 | 47.33388 | 19.22148 | 31225 ft | 403 kts | 281° |
| 2026-04-30 09:33 | 47.33699 | 19.18054 | 30853 ft | 401 kts | 281° |
| 2026-04-30 09:33 | 47.34131 | 19.14013 | 30474 ft | 395 kts | 289° |
| 2026-04-30 09:33 | 47.34973 | 19.10193 | 30048 ft | 388 kts | 298° |
| 2026-04-30 09:33 | 47.36090 | 19.06606 | 29616 ft | 384 kts | 300° |
| 2026-04-30 09:34 | 47.37213 | 19.03042 | 29191 ft | 382 kts | 300° |
| 2026-04-30 09:34 | 47.38325 | 18.99487 | 28737 ft | 380 kts | 300° |
| 2026-04-30 09:34 | 47.39427 | 18.95954 | 28327 ft | 378 kts | 300° |
| 2026-04-30 09:34 | 47.40525 | 18.92430 | 27922 ft | 376 kts | 300° |
| 2026-04-30 09:35 | 47.41616 | 18.88930 | 27513 ft | 374 kts | 300° |
| 2026-04-30 09:35 | 47.42687 | 18.85497 | 27125 ft | 372 kts | 300° |
| 2026-04-30 09:35 | 47.43765 | 18.82039 | 26736 ft | 370 kts | 300° |
| 2026-04-30 09:35 | 47.44836 | 18.78593 | 26348 ft | 368 kts | 300° |
| 2026-04-30 09:36 | 47.45904 | 18.75153 | 25966 ft | 366 kts | 300° |
| 2026-04-30 09:36 | 47.46961 | 18.71744 | 25591 ft | 364 kts | 300° |
| 2026-04-30 09:36 | 47.47659 | 18.69492 | 25347 ft | 363 kts | 300° |
| 2026-04-30 09:36 | 47.48709 | 18.66109 | 24964 ft | 361 kts | 300° |
| 2026-04-30 09:37 | 47.49752 | 18.62742 | 24606 ft | 359 kts | 300° |
| 2026-04-30 09:37 | 47.50785 | 18.59390 | 24237 ft | 357 kts | 300° |
| 2026-04-30 09:37 | 47.51808 | 18.56057 | 23864 ft | 355 kts | 300° |
| 2026-04-30 09:37 | 47.52825 | 18.52743 | 23442 ft | 353 kts | 300° |
| 2026-04-30 09:38 | 47.53829 | 18.49437 | 23018 ft | 351 kts | 297° |
| 2026-04-30 09:38 | 47.54622 | 18.46011 | 22614 ft | 352 kts | 293° |
| 2026-04-30 09:38 | 47.55362 | 18.42564 | 22209 ft | 349 kts | 292° |
| 2026-04-30 09:38 | 47.56091 | 18.39143 | 21802 ft | 347 kts | 292° |
| 2026-04-30 09:39 | 47.56810 | 18.35752 | 21419 ft | 344 kts | 292° |
| 2026-04-30 09:39 | 47.57526 | 18.32382 | 21032 ft | 342 kts | 292° |
| 2026-04-30 09:39 | 47.58236 | 18.29039 | 20648 ft | 339 kts | 292° |
| 2026-04-30 09:39 | 47.58938 | 18.25723 | 20243 ft | 337 kts | 292° |
| 2026-04-30 09:40 | 47.59637 | 18.22421 | 19869 ft | 334 kts | 292° |
| 2026-04-30 09:40 | 47.60331 | 18.19145 | 19506 ft | 332 kts | 292° |
| 2026-04-30 09:40 | 47.61020 | 18.15893 | 19142 ft | 330 kts | 291° |
| 2026-04-30 09:40 | 47.61702 | 18.12653 | 18782 ft | 328 kts | 291° |
| 2026-04-30 09:41 | 47.62379 | 18.09438 | 18374 ft | 326 kts | 291° |
| 2026-04-30 09:41 | 47.63053 | 18.06237 | 17962 ft | 324 kts | 291° |
| 2026-04-30 09:41 | 47.63712 | 18.03098 | 17566 ft | 322 kts | 291° |
| 2026-04-30 09:41 | 47.64378 | 17.99929 | 17164 ft | 321 kts | 291° |
| 2026-04-30 09:42 | 47.65037 | 17.96779 | 16756 ft | 319 kts | 291° |
| 2026-04-30 09:42 | 47.65693 | 17.93638 | 16377 ft | 318 kts | 291° |
| 2026-04-30 09:42 | 47.66344 | 17.90511 | 15993 ft | 317 kts | 291° |
| 2026-04-30 09:42 | 47.66992 | 17.87394 | 15603 ft | 315 kts | 291° |
| 2026-04-30 09:43 | 47.67639 | 17.84287 | 15232 ft | 314 kts | 291° |
| 2026-04-30 09:43 | 47.68283 | 17.81188 | 14870 ft | 313 kts | 291° |
| 2026-04-30 09:43 | 47.68922 | 17.78105 | 14503 ft | 313 kts | 291° |
| 2026-04-30 09:43 | 47.69559 | 17.75026 | 14127 ft | 312 kts | 291° |
| 2026-04-30 09:44 | 47.70196 | 17.71949 | 13718 ft | 311 kts | 291° |
| 2026-04-30 09:44 | 47.70830 | 17.68877 | 13310 ft | 311 kts | 291° |
| 2026-04-30 09:44 | 47.71461 | 17.65811 | 12908 ft | 310 kts | 291° |
| 2026-04-30 09:44 | 47.72092 | 17.62753 | 12514 ft | 309 kts | 291° |
| 2026-04-30 09:45 | 47.72720 | 17.59696 | 12116 ft | 309 kts | 290° |
| 2026-04-30 09:45 | 47.73344 | 17.56644 | 11733 ft | 308 kts | 290° |
| 2026-04-30 09:45 | 47.73965 | 17.53601 | 11348 ft | 307 kts | 290° |
| 2026-04-30 09:45 | 47.74463 | 17.50523 | 11060 ft | 306 kts | 281° |
| 2026-04-30 09:46 | 47.74516 | 17.47416 | 10820 ft | 304 kts | 268° |
| 2026-04-30 09:46 | 47.74291 | 17.44319 | 10605 ft | 299 kts | 266° |
| 2026-04-30 09:46 | 47.74069 | 17.41221 | 10377 ft | 297 kts | 267° |
| 2026-04-30 09:46 | 47.73857 | 17.38177 | 10137 ft | 295 kts | 267° |
| 2026-04-30 09:47 | 47.73648 | 17.35151 | 9890 ft | 295 kts | 267° |
| 2026-04-30 09:47 | 47.73438 | 17.32127 | 9644 ft | 294 kts | 267° |
| 2026-04-30 09:47 | 47.73225 | 17.29113 | 9400 ft | 292 kts | 267° |
| 2026-04-30 09:47 | 47.73013 | 17.26153 | 9158 ft | 291 kts | 267° |
| 2026-04-30 09:48 | 47.72798 | 17.23166 | 8927 ft | 290 kts | 266° |
| 2026-04-30 09:48 | 47.72580 | 17.20187 | 8666 ft | 289 kts | 266° |
| 2026-04-30 09:48 | 47.72364 | 17.17223 | 8405 ft | 288 kts | 266° |
| 2026-04-30 09:48 | 47.72150 | 17.14266 | 8139 ft | 287 kts | 266° |
| 2026-04-30 09:49 | 47.71937 | 17.11323 | 7869 ft | 286 kts | 267° |
| 2026-04-30 09:49 | 47.71799 | 17.08389 | 7587 ft | 282 kts | 275° |
| 2026-04-30 09:49 | 47.72107 | 17.05537 | 7308 ft | 277 kts | 291° |
| 2026-04-30 09:49 | 47.72870 | 17.02959 | 7020 ft | 270 kts | 305° |
| 2026-04-30 09:50 | 47.73986 | 17.00743 | 6748 ft | 267 kts | 313° |
| 2026-04-30 09:50 | 47.75155 | 16.98605 | 6514 ft | 266 kts | 313° |
| 2026-04-30 09:50 | 47.76312 | 16.96476 | 6273 ft | 263 kts | 313° |
| 2026-04-30 09:50 | 47.77458 | 16.94360 | 6034 ft | 261 kts | 313° |
| 2026-04-30 09:51 | 47.78591 | 16.92262 | 5795 ft | 260 kts | 312° |
| 2026-04-30 09:51 | 47.79722 | 16.90173 | 5560 ft | 258 kts | 313° |
| 2026-04-30 09:51 | 47.80848 | 16.88098 | 5327 ft | 255 kts | 313° |
| 2026-04-30 09:51 | 47.81960 | 16.86045 | 5089 ft | 254 kts | 312° |
| 2026-04-30 09:52 | 47.83064 | 16.84004 | 4880 ft | 253 kts | 312° |
| 2026-04-30 09:52 | 47.84147 | 16.81997 | 4681 ft | 251 kts | 312° |
| 2026-04-30 09:52 | 47.85244 | 16.79959 | 4461 ft | 247 kts | 312° |
| 2026-04-30 09:52 | 47.86306 | 16.77986 | 4253 ft | 241 kts | 312° |
| 2026-04-30 09:53 | 47.87329 | 16.76077 | 4047 ft | 236 kts | 311° |
| 2026-04-30 09:53 | 47.88336 | 16.74195 | 3926 ft | 228 kts | 311° |
| 2026-04-30 09:53 | 47.89311 | 16.72375 | 3799 ft | 223 kts | 312° |
| 2026-04-30 09:53 | 47.90269 | 16.70591 | 3662 ft | 216 kts | 312° |
| 2026-04-30 09:54 | 47.91198 | 16.68861 | 3533 ft | 211 kts | 311° |
| 2026-04-30 09:54 | 47.92114 | 16.67166 | 3406 ft | 208 kts | 315° |
| 2026-04-30 09:54 | 47.93197 | 16.65851 | 3263 ft | 195 kts | 336° |
| 2026-04-30 09:54 | 47.94442 | 16.65204 | 3141 ft | 187 kts | 346° |
| 2026-04-30 09:55 | 47.95660 | 16.64694 | 3064 ft | 173 kts | 346° |
| 2026-04-30 09:55 | 47.96741 | 16.64239 | 3010 ft | 149 kts | 346° |
| 2026-04-30 09:55 | 47.97693 | 16.63839 | 3007 ft | 137 kts | 346° |
| 2026-04-30 09:55 | 47.98604 | 16.63456 | 3021 ft | 136 kts | 346° |
| 2026-04-30 09:56 | 47.99529 | 16.63068 | 2724 ft | 137 kts | 347° |
| 2026-04-30 09:56 | 48.00422 | 16.62692 | 2471 ft | 132 kts | 346° |
| 2026-04-30 09:56 | 48.01310 | 16.62319 | 2253 ft | 131 kts | 346° |
| 2026-04-30 09:56 | 48.02204 | 16.61943 | 2063 ft | 134 kts | 345° |
| 2026-04-30 09:57 | 48.03093 | 16.61571 | 1871 ft | 134 kts | 346° |
| 2026-04-30 09:57 | 48.03981 | 16.61208 | 1687 ft | 132 kts | 346° |
| 2026-04-30 09:57 | 48.04861 | 16.60827 | 1478 ft | 130 kts | 346° |
| 2026-04-30 09:57 | 48.05729 | 16.60456 | 1326 ft | 132 kts | 348° |
| 2026-04-30 09:58 | 48.06628 | 16.60088 | 1119 ft | 133 kts | 347° |
| 2026-04-30 09:58 | 48.07503 | 16.59699 | 922 ft | 130 kts | 349° |
| 2026-04-30 09:58 | 48.08373 | 16.59333 | 737 ft | 130 kts | 349° |
| 2026-04-30 09:58 | 48.09236 | 16.58971 | 622 ft | 122 kts | 349° |
| 2026-04-30 09:59 | 48.10305 | 16.58526 | 615 ft | 38 kts | 344° |
| 2026-04-30 09:59 | 48.10708 | 16.58303 | 617 ft | 26 kts | 323° |
| 2026-04-30 10:00 | 48.10848 | 16.58100 | 612 ft | 0 kts | 314° |
| 2026-04-30 10:00 | 48.10853 | 16.58094 | 620 ft | 2 kts | 314° |
| 2026-04-30 10:01 | 48.10903 | 16.58016 | 614 ft | 8 kts | 314° |
| 2026-04-30 10:01 | 48.10951 | 16.57944 | 614 ft | 11 kts | 314° |
| 2026-04-30 10:01 | 48.11012 | 16.57850 | 619 ft | 14 kts | 314° |
| 2026-04-30 10:02 | 48.11124 | 16.57535 | 613 ft | 20 kts | 296° |
| 2026-04-30 10:02 | 48.11187 | 16.57344 | 625 ft | 22 kts | 296° |
| 2026-04-30 10:02 | 48.11251 | 16.57146 | 618 ft | 21 kts | 296° |
| 2026-04-30 10:02 | 48.11318 | 16.56940 | 622 ft | 23 kts | 296° |
| 2026-04-30 10:03 | 48.11392 | 16.56715 | 626 ft | 21 kts | 295° |
| 2026-04-30 10:03 | 48.11458 | 16.56509 | 626 ft | 23 kts | 296° |
| 2026-04-30 10:03 | 48.11533 | 16.56282 | 617 ft | 25 kts | 296° |
| 2026-04-30 10:03 | 48.11613 | 16.56036 | 617 ft | 27 kts | 296° |
| 2026-04-30 10:04 | 48.11690 | 16.55799 | 616 ft | 25 kts | 296° |
| 2026-04-30 10:04 | 48.11768 | 16.55558 | 616 ft | 18 kts | 295° |
| 2026-04-30 10:04 | 48.11804 | 16.55449 | 615 ft | 12 kts | 298° |
| 2026-04-30 10:04 | 48.11884 | 16.55434 | 610 ft | 14 kts | 7° |
| 2026-04-30 10:05 | 48.11972 | 16.55479 | 623 ft | 8 kts | 26° |
| 2026-04-30 10:05 | 48.12023 | 16.55516 | 610 ft | 10 kts | 25° |
| 2026-04-30 10:05 | 48.12069 | 16.55551 | 618 ft | 6 kts | 37° |
| 2026-04-30 10:05 | 48.12064 | 16.55600 | 614 ft | 2 kts | 116° |
| 2026-04-30 10:06 | 48.12056 | 16.55624 | 620 ft | 1 kts | 115° |
| 2026-04-30 10:06 | 48.12053 | 16.55633 | 613 ft | 0 kts | 115° |